createdAt,value
2018-11-04T00:00:27.889Z,2.23
2018-11-04T00:02:54.361Z,2.10
2018-11-04T00:05:20.790Z,2.07
2018-11-04T00:07:48.629Z,2.40
2018-11-04T00:10:15.045Z,3.00
2018-11-04T00:12:41.452Z,1.90
2018-11-04T00:15:07.949Z,1.87
2018-11-04T00:17:34.382Z,2.37
2018-11-04T00:20:03.135Z,2.17
2018-11-04T00:22:29.605Z,1.90
2018-11-04T00:24:56.063Z,2.03
2018-11-04T00:27:22.590Z,2.30
2018-11-04T00:29:49.410Z,2.27
2018-11-04T00:32:15.817Z,1.97
2018-11-04T00:34:42.302Z,1.93
2018-11-04T00:37:09.256Z,2.10
2018-11-04T00:39:35.686Z,2.47
2018-11-04T00:42:02.172Z,2.60
2018-11-04T00:44:28.826Z,1.97
2018-11-04T00:46:55.233Z,2.37
2018-11-04T00:49:21.654Z,2.67
2018-11-04T00:51:48.042Z,1.90
2018-11-04T00:54:14.469Z,2.27
2018-11-04T00:56:40.892Z,2.27
2018-11-04T00:59:07.327Z,2.10
2018-11-04T01:01:33.793Z,2.20
2018-11-04T01:04:00.190Z,2.13
2018-11-04T01:06:26.586Z,2.20
2018-11-04T01:08:53.043Z,2.40
2018-11-04T01:11:19.486Z,1.90
2018-11-04T01:13:45.963Z,2.10
2018-11-04T01:16:12.386Z,1.93
2018-11-04T01:18:38.822Z,2.00
2018-11-04T01:21:05.256Z,2.07
2018-11-04T01:23:31.685Z,1.97
2018-11-04T01:25:58.137Z,2.60
2018-11-04T01:28:24.567Z,2.53
2018-11-04T01:30:51.015Z,3.07
2018-11-04T01:33:17.433Z,2.33
2018-11-04T01:35:43.850Z,1.90
2018-11-04T01:38:10.352Z,2.23
2018-11-04T01:40:36.807Z,1.90
2018-11-04T01:43:03.285Z,2.17
2018-11-04T01:45:29.707Z,2.37
2018-11-04T01:47:56.148Z,1.70
2018-11-04T01:50:22.712Z,2.13
2018-11-04T01:52:49.154Z,2.20
2018-11-04T01:55:15.565Z,2.80
2018-11-04T01:57:41.965Z,1.80
2018-11-04T02:00:11.825Z,2.30
2018-11-04T02:02:38.339Z,2.13
2018-11-04T02:05:04.763Z,2.60
2018-11-04T02:07:31.187Z,2.27
2018-11-04T02:09:57.639Z,2.30
2018-11-04T02:12:24.081Z,1.90
2018-11-04T02:14:50.507Z,2.30
2018-11-04T02:17:16.962Z,2.20
2018-11-04T02:19:43.407Z,1.83
2018-11-04T02:22:09.819Z,2.23
2018-11-04T02:24:36.271Z,2.37
2018-11-04T02:27:02.693Z,2.30
2018-11-04T02:29:29.223Z,2.10
2018-11-04T02:31:55.684Z,2.13
2018-11-04T02:34:22.121Z,2.43
2018-11-04T02:36:48.553Z,2.07
2018-11-04T02:39:14.987Z,2.00
2018-11-04T02:41:41.411Z,1.90
2018-11-04T02:44:08.343Z,2.00
2018-11-04T02:46:34.758Z,2.00
2018-11-04T02:49:01.211Z,1.97
2018-11-04T02:51:27.638Z,2.27
2018-11-04T02:53:54.053Z,2.37
2018-11-04T02:56:20.543Z,2.20
2018-11-04T02:58:47.046Z,2.73
2018-11-04T03:01:13.522Z,2.80
2018-11-04T03:03:39.991Z,2.33
2018-11-04T03:06:06.444Z,1.97
2018-11-04T03:08:32.860Z,1.67
2018-11-04T03:10:59.275Z,1.80
2018-11-04T03:13:25.715Z,1.97
2018-11-04T03:15:52.148Z,2.40
2018-11-04T03:18:18.604Z,2.00
2018-11-04T03:20:45.006Z,2.50
2018-11-04T03:23:11.462Z,2.20
2018-11-04T03:25:38.228Z,1.83
2018-11-04T03:28:04.666Z,2.50
2018-11-04T03:30:31.135Z,2.43
2018-11-04T03:32:57.551Z,1.70
2018-11-04T03:35:23.987Z,1.83
2018-11-04T03:37:50.444Z,2.03
2018-11-04T03:40:17.026Z,2.00
2018-11-04T03:42:43.442Z,1.80
2018-11-04T03:45:10.228Z,2.30
2018-11-04T03:47:36.665Z,2.07
2018-11-04T03:50:03.100Z,2.80
2018-11-04T03:52:29.528Z,1.83
2018-11-04T03:54:55.981Z,1.93
2018-11-04T03:57:22.446Z,2.47
2018-11-04T03:59:48.933Z,2.33
2018-11-04T04:02:15.405Z,2.00
2018-11-04T04:04:41.827Z,2.00
2018-11-04T04:07:11.211Z,1.80
2018-11-04T04:09:37.648Z,2.23
2018-11-04T04:12:04.062Z,2.10
2018-11-04T04:14:30.508Z,2.10
2018-11-04T04:16:56.960Z,1.60
2018-11-04T04:19:23.376Z,2.23
2018-11-04T04:21:49.950Z,1.87
2018-11-04T04:24:16.359Z,2.57
2018-11-04T04:26:42.821Z,2.07
2018-11-04T04:29:09.245Z,2.30
2018-11-04T04:31:35.686Z,2.17
2018-11-04T04:34:02.126Z,2.17
2018-11-04T04:36:28.587Z,2.00
2018-11-04T04:38:55.124Z,2.07
2018-11-04T04:41:21.585Z,2.20
2018-11-04T04:43:48.003Z,2.30
2018-11-04T04:46:14.457Z,2.13
2018-11-04T04:48:40.853Z,1.90
2018-11-04T04:51:07.299Z,1.73
2018-11-04T04:53:33.773Z,1.80
2018-11-04T04:56:00.223Z,2.33
2018-11-04T04:58:26.683Z,2.00
2018-11-04T05:00:54.255Z,2.13
2018-11-04T05:03:20.941Z,2.07
2018-11-04T05:05:47.679Z,1.90
2018-11-04T05:08:14.100Z,2.03
2018-11-04T05:10:40.567Z,2.03
2018-11-04T05:13:07.019Z,1.70
2018-11-04T05:15:33.477Z,2.13
2018-11-04T05:17:59.943Z,1.80
2018-11-04T05:20:26.397Z,2.10
2018-11-04T05:22:52.811Z,2.10
2018-11-04T05:25:19.277Z,2.17
2018-11-04T05:27:45.728Z,2.00
2018-11-04T05:30:12.337Z,2.33
2018-11-04T05:32:38.755Z,1.80
2018-11-04T05:35:05.237Z,2.23
2018-11-04T05:37:31.705Z,2.20
2018-11-04T05:39:58.113Z,2.17
2018-11-04T05:42:24.529Z,1.73
2018-11-04T05:44:50.964Z,1.83
2018-11-04T05:47:17.579Z,1.80
2018-11-04T05:49:44.011Z,2.20
2018-11-04T05:52:10.421Z,2.23
2018-11-04T05:54:37.712Z,1.50
2018-11-04T05:57:04.143Z,2.30
2018-11-04T05:59:30.585Z,1.77
2018-11-04T06:01:57.018Z,1.93
2018-11-04T06:04:23.479Z,2.23
2018-11-04T06:06:49.907Z,2.10
2018-11-04T06:09:16.336Z,1.70
2018-11-04T06:11:42.805Z,2.30
2018-11-04T06:14:09.354Z,1.80
2018-11-04T06:16:35.799Z,1.93
2018-11-04T06:19:02.236Z,2.00
2018-11-04T06:21:28.713Z,1.73
2018-11-04T06:23:55.246Z,2.13
2018-11-04T06:26:21.691Z,2.03
2018-11-04T06:28:48.206Z,1.50
2018-11-04T06:31:14.718Z,1.90
2018-11-04T06:33:41.133Z,1.73
2018-11-04T06:36:07.635Z,2.03
2018-11-04T06:38:34.106Z,2.00
2018-11-04T06:41:00.575Z,1.90
2018-11-04T06:43:26.990Z,1.83
2018-11-04T06:45:53.445Z,1.80
2018-11-04T06:48:19.903Z,1.97
2018-11-04T06:50:46.357Z,2.13
2018-11-04T06:53:12.818Z,1.50
2018-11-04T06:55:39.269Z,1.80
2018-11-04T06:58:05.760Z,1.97
2018-11-04T07:00:32.201Z,2.23
2018-11-04T07:02:58.638Z,1.87
2018-11-04T07:05:25.084Z,2.20
2018-11-04T07:07:51.555Z,2.00
2018-11-04T07:10:18.011Z,2.03
2018-11-04T07:12:44.469Z,1.87
2018-11-04T07:15:10.903Z,2.50
2018-11-04T07:17:37.724Z,1.73
2018-11-04T07:20:04.475Z,1.73
2018-11-04T07:22:30.903Z,2.20
2018-11-04T07:24:57.501Z,2.03
2018-11-04T07:27:23.966Z,1.50
2018-11-04T07:29:50.392Z,1.60
2018-11-04T07:32:16.897Z,1.90
2018-11-04T07:34:43.289Z,2.23
2018-11-04T07:37:09.714Z,1.57
2018-11-04T07:39:36.161Z,1.80
2018-11-04T07:42:02.660Z,1.97
2018-11-04T07:44:29.126Z,1.70
2018-11-04T07:46:55.552Z,1.60
2018-11-04T07:49:22.021Z,1.80
2018-11-04T07:51:48.459Z,1.90
2018-11-04T07:54:14.916Z,1.60
2018-11-04T07:56:41.455Z,1.63
2018-11-04T07:59:07.984Z,1.90
2018-11-04T08:01:34.555Z,1.47
2018-11-04T08:04:01.022Z,1.47
2018-11-04T08:06:27.717Z,1.80
2018-11-04T08:08:54.157Z,1.40
2018-11-04T08:11:20.621Z,1.77
2018-11-04T08:13:47.081Z,2.30
2018-11-04T08:16:13.522Z,1.53
2018-11-04T08:18:40.019Z,1.50
2018-11-04T08:21:06.503Z,1.80
2018-11-04T08:23:32.958Z,1.80
2018-11-04T08:25:59.408Z,1.70
2018-11-04T08:28:25.866Z,1.50
2018-11-04T08:30:52.319Z,1.77
2018-11-04T08:33:19.091Z,2.00
2018-11-04T08:35:45.625Z,1.67
2018-11-04T08:38:12.090Z,1.53
2018-11-04T08:40:38.524Z,1.80
2018-11-04T08:43:04.970Z,1.87
2018-11-04T08:45:31.441Z,1.43
2018-11-04T08:47:57.920Z,1.90
2018-11-04T08:50:24.336Z,1.73
2018-11-04T08:52:50.799Z,1.80
2018-11-04T08:55:17.252Z,1.67
2018-11-04T08:57:43.836Z,1.50
2018-11-04T09:00:16.389Z,2.07
2018-11-04T09:02:43.745Z,1.73
2018-11-04T09:05:10.470Z,1.83
2018-11-04T09:07:36.886Z,1.53
2018-11-04T09:10:04.013Z,2.07
2018-11-04T09:12:30.458Z,1.80
2018-11-04T09:14:56.907Z,1.67
2018-11-04T09:17:23.326Z,1.70
2018-11-04T09:19:49.753Z,1.83
2018-11-04T09:22:16.298Z,1.60
2018-11-04T09:24:42.702Z,1.93
2018-11-04T09:27:09.222Z,1.93
2018-11-04T09:29:35.749Z,1.97
2018-11-04T09:32:02.567Z,1.60
2018-11-04T09:34:29.022Z,1.53
2018-11-04T09:36:55.462Z,1.23
2018-11-04T09:39:21.906Z,1.50
2018-11-04T09:41:48.332Z,1.40
2018-11-04T09:44:14.797Z,1.57
2018-11-04T09:46:41.238Z,1.77
2018-11-04T09:49:07.684Z,1.87
2018-11-04T09:51:34.170Z,1.80
2018-11-04T09:54:00.639Z,1.87
2018-11-04T09:56:27.171Z,1.70
2018-11-04T09:58:53.571Z,2.60
2018-11-04T10:01:20.286Z,1.87
2018-11-04T10:03:46.798Z,1.60
2018-11-04T10:06:13.301Z,1.47
2018-11-04T10:08:39.803Z,3.00
2018-11-04T10:11:06.285Z,1.70
2018-11-04T10:13:32.739Z,1.60
2018-11-04T10:15:59.740Z,1.67
2018-11-04T10:18:26.307Z,1.70
2018-11-04T10:20:53.244Z,1.97
2018-11-04T10:23:19.343Z,2.10
2018-11-04T10:25:45.880Z,1.40
2018-11-04T10:28:12.315Z,1.40
2018-11-04T10:30:38.867Z,1.33
2018-11-04T10:33:05.386Z,2.03
2018-11-04T10:35:32.469Z,2.03
2018-11-04T10:37:58.916Z,1.90
2018-11-04T10:40:25.342Z,1.73
2018-11-04T10:42:51.851Z,1.80
2018-11-04T10:45:18.295Z,2.43
2018-11-04T10:47:44.743Z,1.70
2018-11-04T10:50:14.959Z,1.53
2018-11-04T10:52:41.572Z,1.73
2018-11-04T10:55:09.181Z,1.77
2018-11-04T10:57:35.678Z,1.60
2018-11-04T11:00:03.095Z,1.50
2018-11-04T11:02:29.611Z,1.57
2018-11-04T11:04:56.043Z,1.57
2018-11-04T11:07:22.561Z,1.67
2018-11-04T11:09:49.042Z,2.37
2018-11-04T11:12:15.493Z,1.57
2018-11-04T11:14:41.931Z,1.47
2018-11-04T11:17:08.386Z,1.73
2018-11-04T11:19:34.800Z,1.73
2018-11-04T11:22:01.267Z,1.57
2018-11-04T11:24:27.731Z,1.57
2018-11-04T11:26:54.213Z,1.67
2018-11-04T11:29:20.657Z,1.90
2018-11-04T11:31:47.111Z,1.63
2018-11-04T11:34:14.296Z,1.47
2018-11-04T11:36:40.710Z,1.90
2018-11-04T11:39:07.146Z,1.60
2018-11-04T11:41:34.250Z,2.13
2018-11-04T11:44:00.713Z,1.57
2018-11-04T11:46:27.155Z,1.80
2018-11-04T11:48:53.572Z,1.43
2018-11-04T11:51:20.265Z,1.20
2018-11-04T11:53:46.725Z,1.40
2018-11-04T11:56:13.157Z,1.57
2018-11-04T11:58:39.637Z,1.43
2018-11-04T12:01:06.129Z,1.60
2018-11-04T12:03:32.556Z,1.77
2018-11-04T12:05:59.051Z,1.50
2018-11-04T12:08:25.501Z,1.50
2018-11-04T12:10:51.977Z,1.40
2018-11-04T12:13:18.450Z,1.40
2018-11-04T12:15:44.869Z,1.37
2018-11-04T12:18:11.315Z,1.70
2018-11-04T12:20:37.770Z,1.53
2018-11-04T12:23:04.225Z,1.77
2018-11-04T12:25:30.665Z,1.80
2018-11-04T12:27:57.121Z,1.70
2018-11-04T12:30:23.584Z,1.53
2018-11-04T12:32:50.045Z,1.20
2018-11-04T12:35:16.600Z,2.77
2018-11-04T12:37:42.977Z,1.27
2018-11-04T12:40:13.850Z,1.87
2018-11-04T12:42:40.292Z,1.70
2018-11-04T12:45:07.047Z,1.50
2018-11-04T12:47:33.504Z,1.53
2018-11-04T12:49:59.985Z,1.33
2018-11-04T12:52:26.457Z,1.20
2018-11-04T12:54:52.893Z,1.63
2018-11-04T12:59:52.778Z,1.63
2018-11-04T13:02:19.272Z,1.50
2018-11-04T13:04:45.743Z,1.60
2018-11-04T13:07:12.250Z,1.33
2018-11-04T13:09:38.715Z,1.57
2018-11-04T13:12:05.154Z,1.23
2018-11-04T13:14:31.566Z,1.37
2018-11-04T13:16:58.016Z,1.57
2018-11-04T13:19:24.513Z,1.70
2018-11-04T13:21:50.956Z,1.80
2018-11-04T13:24:17.401Z,1.37
2018-11-04T13:26:43.841Z,1.77
2018-11-04T13:29:10.353Z,1.23
2018-11-04T13:31:37.063Z,1.30
2018-11-04T13:34:03.491Z,1.30
2018-11-04T13:36:29.954Z,1.00
2018-11-04T13:38:56.443Z,2.00
2018-11-04T13:41:22.875Z,1.50
2018-11-04T13:43:49.332Z,1.43
2018-11-04T13:46:15.831Z,1.23
2018-11-04T13:48:42.347Z,1.43
2018-11-04T13:51:08.827Z,1.30
2018-11-04T13:53:35.273Z,1.43
2018-11-04T13:56:01.783Z,1.27
2018-11-04T13:58:28.265Z,1.17
2018-11-04T14:00:54.735Z,1.40
2018-11-04T14:03:21.241Z,1.50
2018-11-04T14:05:47.697Z,1.10
2018-11-04T14:08:14.270Z,1.17
2018-11-04T14:10:40.726Z,1.30
2018-11-04T14:13:07.190Z,1.30
2018-11-04T14:15:33.655Z,1.47
2018-11-04T14:18:00.128Z,1.53
2018-11-04T14:20:26.629Z,1.47
2018-11-04T14:22:53.131Z,1.70
2018-11-04T14:25:19.713Z,1.30
2018-11-04T14:27:46.181Z,1.57
2018-11-04T14:30:14.527Z,2.00
2018-11-04T14:32:40.996Z,1.20
2018-11-04T14:35:08.334Z,1.50
2018-11-04T14:37:34.747Z,1.10
2018-11-04T14:40:01.669Z,1.40
2018-11-04T14:42:28.111Z,1.60
2018-11-04T14:44:54.575Z,0.90
2018-11-04T14:47:21.010Z,1.30
2018-11-04T14:49:49.407Z,1.40
2018-11-04T14:52:16.402Z,2.00
2018-11-04T14:54:42.854Z,1.60
2018-11-04T14:57:09.320Z,1.70
2018-11-04T14:59:35.789Z,1.87
2018-11-04T15:02:02.415Z,1.87
2018-11-04T15:04:28.795Z,1.83
2018-11-04T15:06:55.391Z,1.30
2018-11-04T15:09:21.859Z,1.10
2018-11-04T15:11:48.316Z,1.20
2018-11-04T15:14:14.783Z,1.43
2018-11-04T15:16:41.251Z,1.97
2018-11-04T15:19:07.767Z,1.30
2018-11-04T15:21:34.196Z,1.40
2018-11-04T15:24:00.661Z,3.57
2018-11-04T15:26:27.148Z,5.70
2018-11-04T15:28:53.557Z,4.77
2018-11-04T15:31:19.974Z,4.83
2018-11-04T15:33:46.442Z,4.53
2018-11-04T15:36:12.898Z,3.20
2018-11-04T15:38:39.489Z,3.67
2018-11-04T15:41:05.869Z,2.13
2018-11-04T15:43:32.330Z,2.80
2018-11-04T15:45:58.782Z,2.50
2018-11-04T15:48:25.259Z,3.17
2018-11-04T15:50:52.021Z,3.30
2018-11-04T15:53:18.457Z,2.40
2018-11-04T15:55:44.921Z,2.53
2018-11-04T15:58:11.369Z,3.23
2018-11-04T16:00:37.875Z,2.30
2018-11-04T16:03:04.345Z,2.73
2018-11-04T16:05:30.877Z,2.63
2018-11-04T16:07:57.261Z,2.37
2018-11-04T16:10:23.733Z,2.77
2018-11-04T16:12:50.195Z,3.50
2018-11-04T16:15:16.681Z,3.60
2018-11-04T16:17:43.915Z,4.53
2018-11-04T16:20:11.898Z,3.43
2018-11-04T16:22:39.104Z,4.37
2018-11-04T16:25:05.571Z,3.57
2018-11-04T16:27:31.998Z,4.70
2018-11-04T16:29:59.101Z,3.70
2018-11-04T16:32:25.547Z,3.50
2018-11-04T16:34:52.026Z,6.17
2018-11-04T16:37:18.469Z,5.37
2018-11-04T16:39:45.020Z,6.80
2018-11-04T16:42:11.533Z,4.47
2018-11-04T16:44:38.070Z,3.97
2018-11-04T16:47:04.470Z,5.27
2018-11-04T16:49:30.903Z,4.20
2018-11-04T16:51:57.369Z,4.13
2018-11-04T16:54:23.855Z,4.37
2018-11-04T16:56:52.195Z,5.07
2018-11-04T16:59:18.773Z,4.43
2018-11-04T17:01:45.224Z,3.83
2018-11-04T17:04:11.716Z,3.77
2018-11-04T17:06:38.190Z,3.83
2018-11-04T17:09:04.706Z,3.90
2018-11-04T17:11:31.338Z,4.60
2018-11-04T17:13:57.698Z,3.80
2018-11-04T17:16:24.275Z,4.77
2018-11-04T17:18:50.740Z,5.00
2018-11-04T17:21:17.189Z,3.83
2018-11-04T17:23:43.652Z,4.00
2018-11-04T17:26:10.366Z,3.60
2018-11-04T17:28:37.277Z,3.73
2018-11-04T17:31:03.880Z,3.33
2018-11-04T17:33:30.409Z,3.07
2018-11-04T17:35:56.907Z,3.87
2018-11-04T17:38:23.362Z,3.77
2018-11-04T17:40:49.819Z,5.63
2018-11-04T17:43:16.325Z,4.53
2018-11-04T17:45:42.797Z,5.97
2018-11-04T17:48:09.293Z,5.97
2018-11-04T17:50:35.744Z,4.57
2018-11-04T17:53:02.244Z,6.03
2018-11-04T17:55:28.704Z,4.83
2018-11-04T17:57:55.146Z,4.03
2018-11-04T18:00:21.704Z,4.77
2018-11-04T18:02:48.145Z,6.00
2018-11-04T18:05:15.007Z,6.27
2018-11-04T18:07:42.524Z,7.73
2018-11-04T18:10:10.370Z,6.00
2018-11-04T18:12:36.993Z,7.93
2018-11-04T18:15:03.560Z,5.93
2018-11-04T18:17:30.383Z,5.63
2018-11-04T18:19:56.834Z,5.83
2018-11-04T18:22:23.282Z,7.83
2018-11-04T18:24:49.751Z,4.37
2018-11-04T18:27:16.203Z,4.13
2018-11-04T18:29:42.688Z,4.40
2018-11-04T18:32:09.174Z,5.50
2018-11-04T18:34:35.586Z,5.50
2018-11-04T18:37:02.031Z,4.60
2018-11-04T18:39:28.501Z,5.17
2018-11-04T18:41:54.965Z,3.67
2018-11-04T18:44:21.523Z,4.23
2018-11-04T18:46:47.955Z,5.13
2018-11-04T18:49:14.421Z,5.30
2018-11-04T18:51:40.893Z,4.47
2018-11-04T18:54:07.324Z,5.57
2018-11-04T18:56:33.798Z,5.07
2018-11-04T18:59:00.444Z,3.70
2018-11-04T19:01:26.803Z,4.63
2018-11-04T19:03:53.237Z,3.63
2018-11-04T19:06:19.691Z,3.47
2018-11-04T19:08:46.144Z,3.43
2018-11-04T19:11:12.619Z,2.80
2018-11-04T19:13:39.076Z,4.57
2018-11-04T19:16:05.718Z,4.10
2018-11-04T19:18:32.489Z,4.43
2018-11-04T19:20:58.967Z,3.07
2018-11-04T19:23:25.821Z,3.73
2018-11-04T19:25:52.319Z,3.67
2018-11-04T19:28:18.782Z,3.40
2018-11-04T19:30:45.294Z,4.37
2018-11-04T19:33:11.668Z,3.57
2018-11-04T19:35:38.116Z,4.20
2018-11-04T19:38:04.688Z,3.53
2018-11-04T19:40:31.154Z,3.90
2018-11-04T19:42:57.620Z,3.47
2018-11-04T19:45:24.073Z,4.97
2018-11-04T19:47:50.539Z,3.50
2018-11-04T19:50:17.023Z,3.87
2018-11-04T19:52:43.608Z,3.40
2018-11-04T19:55:11.073Z,3.50
2018-11-04T19:57:37.547Z,3.03
2018-11-04T20:00:04.412Z,3.80
2018-11-04T20:02:30.865Z,3.20
2018-11-04T20:04:57.917Z,3.63
2018-11-04T20:07:24.659Z,3.53
2018-11-04T20:09:51.158Z,3.50
2018-11-04T20:12:23.367Z,3.20
2018-11-04T20:14:49.825Z,2.53
2018-11-04T20:17:16.286Z,2.50
2018-11-04T20:19:48.637Z,2.57
2018-11-04T20:22:15.051Z,3.13
2018-11-04T20:24:47.166Z,3.07
2018-11-04T20:27:13.632Z,2.37
2018-11-04T20:29:40.075Z,2.97
2018-11-04T20:32:12.237Z,3.13
2018-11-04T20:34:38.665Z,3.53
2018-11-04T20:37:05.111Z,3.00
2018-11-04T20:39:37.297Z,2.73
2018-11-04T20:42:03.724Z,3.07
2018-11-04T20:44:30.259Z,3.27
2018-11-04T20:46:56.709Z,3.30
2018-11-04T20:49:28.810Z,2.10
2018-11-04T20:51:55.225Z,2.73
2018-11-04T20:54:21.704Z,2.93
2018-11-04T20:56:53.748Z,3.03
2018-11-04T20:59:20.167Z,3.63
2018-11-04T21:01:46.791Z,2.47
2018-11-04T21:04:13.210Z,3.23
2018-11-04T21:06:39.670Z,3.00
2018-11-04T21:09:06.147Z,3.90
2018-11-04T21:11:32.594Z,2.97
2018-11-04T21:13:59.051Z,2.37
2018-11-04T21:16:25.579Z,2.27
2018-11-04T21:18:51.980Z,2.30
2018-11-04T21:21:18.541Z,3.07
2018-11-04T21:23:45.189Z,2.33
2018-11-04T21:26:11.622Z,3.20
2018-11-04T21:28:38.438Z,2.23
2018-11-04T21:31:05.056Z,2.37
2018-11-04T21:33:31.608Z,2.77
2018-11-04T21:35:58.034Z,2.50
2018-11-04T21:38:24.499Z,2.57
2018-11-04T21:40:51.210Z,2.40
2018-11-04T21:43:17.865Z,2.53
2018-11-04T21:45:44.162Z,2.63
2018-11-04T21:48:10.609Z,2.17
2018-11-04T21:50:37.039Z,2.17
2018-11-04T21:53:03.462Z,3.30
2018-11-04T21:55:30.122Z,2.70
2018-11-04T21:57:56.556Z,2.37
2018-11-04T22:00:23.043Z,3.30
2018-11-04T22:02:49.531Z,2.50
2018-11-04T22:05:15.917Z,2.57
2018-11-04T22:07:43.141Z,2.20
2018-11-04T22:10:10.366Z,2.60
2018-11-04T22:12:36.838Z,2.27
2018-11-04T22:15:03.309Z,2.67
2018-11-04T22:17:29.730Z,2.77
2018-11-04T22:19:56.221Z,2.47
2018-11-04T22:22:22.685Z,2.57
2018-11-04T22:24:49.115Z,2.53
2018-11-04T22:27:15.530Z,2.87
2018-11-04T22:29:42.038Z,1.97
2018-11-04T22:32:08.496Z,3.57
2018-11-04T22:34:34.927Z,2.50
2018-11-04T22:37:01.399Z,2.27
2018-11-04T22:39:27.829Z,1.93
2018-11-04T22:41:54.267Z,3.77
2018-11-04T22:44:20.692Z,2.23
2018-11-04T22:46:47.147Z,2.20
2018-11-04T22:49:13.594Z,2.50
2018-11-04T22:51:40.054Z,2.53
2018-11-04T22:54:06.513Z,2.50
2018-11-04T22:56:33.044Z,2.80
2018-11-04T22:58:59.404Z,2.93
2018-11-04T23:01:25.875Z,2.00
2018-11-04T23:03:52.364Z,2.80
2018-11-04T23:06:18.808Z,2.40
2018-11-04T23:08:45.229Z,2.53
2018-11-04T23:11:11.672Z,2.37
2018-11-04T23:13:38.207Z,2.30
2018-11-04T23:16:04.668Z,2.97
2018-11-04T23:18:31.200Z,2.60
2018-11-04T23:20:57.718Z,2.27
2018-11-04T23:23:24.315Z,2.20
2018-11-04T23:25:50.725Z,2.37
2018-11-04T23:28:17.194Z,2.30
2018-11-04T23:30:43.651Z,2.63
2018-11-04T23:33:10.081Z,2.60
2018-11-04T23:35:36.615Z,2.03
2018-11-04T23:38:03.037Z,2.53
2018-11-04T23:40:29.530Z,2.73
2018-11-04T23:42:55.999Z,2.80
2018-11-04T23:45:22.449Z,2.00
2018-11-04T23:47:48.869Z,2.00
2018-11-04T23:50:16.293Z,2.33
2018-11-04T23:52:43.149Z,2.30
2018-11-04T23:55:10.551Z,2.37
2018-11-04T23:57:36.973Z,2.20
